sensor_id;sensor_type;location;lat;lon;timestamp;P1;durP1;ratioP1;P2;durP2;ratioP2
27424;SDS011;15244;49.088;11.886;2022-11-20T00:03:14;22.35;;;15.20;;
27424;SDS011;15244;49.088;11.886;2022-11-20T00:08:16;20.70;;;14.13;;
27424;SDS011;15244;49.088;11.886;2022-11-20T00:13:18;18.98;;;13.32;;
27424;SDS011;15244;49.088;11.886;2022-11-20T00:18:22;20.63;;;14.63;;
27424;SDS011;15244;49.088;11.886;2022-11-20T00:23:24;19.42;;;14.27;;
27424;SDS011;15244;49.088;11.886;2022-11-20T00:28:26;23.60;;;15.52;;
27424;SDS011;15244;49.088;11.886;2022-11-20T00:33:31;21.40;;;14.88;;
27424;SDS011;15244;49.088;11.886;2022-11-20T00:38:35;23.77;;;15.55;;
27424;SDS011;15244;49.088;11.886;2022-11-20T00:43:40;25.95;;;16.33;;
27424;SDS011;15244;49.088;11.886;2022-11-20T00:48:43;23.23;;;15.23;;
27424;SDS011;15244;49.088;11.886;2022-11-20T00:53:46;21.98;;;15.13;;
27424;SDS011;15244;49.088;11.886;2022-11-20T00:58:48;25.75;;;16.33;;
27424;SDS011;15244;49.088;11.886;2022-11-20T01:03:51;23.67;;;14.93;;
27424;SDS011;15244;49.088;11.886;2022-11-20T01:08:59;17.67;;;11.70;;
27424;SDS011;15244;49.088;11.886;2022-11-20T01:14:07;27.80;;;15.57;;
27424;SDS011;15244;49.088;11.886;2022-11-20T01:19:13;26.45;;;16.58;;
27424;SDS011;15244;49.088;11.886;2022-11-20T01:24:19;26.73;;;14.73;;
27424;SDS011;15244;49.088;11.886;2022-11-20T01:29:23;28.35;;;17.10;;
27424;SDS011;15244;49.088;11.886;2022-11-20T01:34:25;24.52;;;16.00;;
27424;SDS011;15244;49.088;11.886;2022-11-20T01:39:29;25.80;;;16.23;;
27424;SDS011;15244;49.088;11.886;2022-11-20T01:50:03;24.70;;;16.05;;
27424;SDS011;15244;49.088;11.886;2022-11-20T01:55:29;22.50;;;15.02;;
27424;SDS011;15244;49.088;11.886;2022-11-20T02:00:35;23.58;;;15.05;;
27424;SDS011;15244;49.088;11.886;2022-11-20T02:05:45;27.67;;;17.17;;
27424;SDS011;15244;49.088;11.886;2022-11-20T02:10:48;22.50;;;15.48;;
27424;SDS011;15244;49.088;11.886;2022-11-20T02:15:50;23.83;;;15.77;;
27424;SDS011;15244;49.088;11.886;2022-11-20T02:20:59;23.75;;;15.55;;
27424;SDS011;15244;49.088;11.886;2022-11-20T02:26:09;24.17;;;16.20;;
27424;SDS011;15244;49.088;11.886;2022-11-20T02:31:17;24.52;;;16.05;;
27424;SDS011;15244;49.088;11.886;2022-11-20T02:36:19;22.25;;;15.15;;
27424;SDS011;15244;49.088;11.886;2022-11-20T02:41:20;22.95;;;14.48;;
27424;SDS011;15244;49.088;11.886;2022-11-20T02:46:23;22.08;;;15.55;;
27424;SDS011;15244;49.088;11.886;2022-11-20T02:51:27;23.20;;;14.52;;
27424;SDS011;15244;49.088;11.886;2022-11-20T02:56:29;21.75;;;16.05;;
27424;SDS011;15244;49.088;11.886;2022-11-20T03:01:31;20.75;;;14.90;;
27424;SDS011;15244;49.088;11.886;2022-11-20T03:06:33;23.33;;;16.13;;
27424;SDS011;15244;49.088;11.886;2022-11-20T03:11:37;20.33;;;14.75;;
27424;SDS011;15244;49.088;11.886;2022-11-20T03:16:38;22.83;;;15.40;;
27424;SDS011;15244;49.088;11.886;2022-11-20T03:21:40;21.95;;;14.85;;
27424;SDS011;15244;49.088;11.886;2022-11-20T03:26:42;21.80;;;14.88;;
27424;SDS011;15244;49.088;11.886;2022-11-20T03:31:46;22.13;;;15.27;;
27424;SDS011;15244;49.088;11.886;2022-11-20T03:36:50;26.50;;;15.85;;
27424;SDS011;15244;49.088;11.886;2022-11-20T03:41:52;23.90;;;15.02;;
27424;SDS011;15244;49.088;11.886;2022-11-20T03:46:54;26.05;;;15.52;;
27424;SDS011;15244;49.088;11.886;2022-11-20T03:51:56;21.20;;;14.32;;
27424;SDS011;15244;49.088;11.886;2022-11-20T03:56:59;22.35;;;15.30;;
27424;SDS011;15244;49.088;11.886;2022-11-20T04:02:01;22.17;;;15.07;;
27424;SDS011;15244;49.088;11.886;2022-11-20T04:07:06;25.92;;;16.92;;
27424;SDS011;15244;49.088;11.886;2022-11-20T04:12:08;21.92;;;15.18;;
27424;SDS011;15244;49.088;11.886;2022-11-20T04:17:10;23.48;;;15.63;;
27424;SDS011;15244;49.088;11.886;2022-11-20T04:22:12;23.63;;;14.68;;
27424;SDS011;15244;49.088;11.886;2022-11-20T04:27:18;22.80;;;15.35;;
27424;SDS011;15244;49.088;11.886;2022-11-20T04:32:20;21.65;;;14.77;;
27424;SDS011;15244;49.088;11.886;2022-11-20T04:37:22;25.38;;;15.68;;
27424;SDS011;15244;49.088;11.886;2022-11-20T04:42:25;20.65;;;14.55;;
27424;SDS011;15244;49.088;11.886;2022-11-20T04:47:34;20.58;;;14.07;;
27424;SDS011;15244;49.088;11.886;2022-11-20T04:52:38;22.27;;;14.85;;
27424;SDS011;15244;49.088;11.886;2022-11-20T04:57:41;23.42;;;14.77;;
27424;SDS011;15244;49.088;11.886;2022-11-20T05:02:44;18.60;;;13.52;;
27424;SDS011;15244;49.088;11.886;2022-11-20T05:07:46;18.70;;;13.75;;
27424;SDS011;15244;49.088;11.886;2022-11-20T05:12:48;20.85;;;13.48;;
27424;SDS011;15244;49.088;11.886;2022-11-20T05:17:50;19.70;;;13.35;;
27424;SDS011;15244;49.088;11.886;2022-11-20T05:22:55;20.70;;;13.68;;
27424;SDS011;15244;49.088;11.886;2022-11-20T05:27:59;18.83;;;13.13;;
27424;SDS011;15244;49.088;11.886;2022-11-20T05:33:01;17.38;;;12.38;;
27424;SDS011;15244;49.088;11.886;2022-11-20T05:38:03;17.15;;;12.10;;
27424;SDS011;15244;49.088;11.886;2022-11-20T05:43:05;16.42;;;12.10;;
27424;SDS011;15244;49.088;11.886;2022-11-20T05:48:08;17.63;;;13.50;;
27424;SDS011;15244;49.088;11.886;2022-11-20T05:53:10;16.95;;;12.57;;
27424;SDS011;15244;49.088;11.886;2022-11-20T05:58:12;17.25;;;11.95;;
27424;SDS011;15244;49.088;11.886;2022-11-20T06:03:14;18.70;;;12.57;;
27424;SDS011;15244;49.088;11.886;2022-11-20T06:08:17;17.90;;;13.18;;
27424;SDS011;15244;49.088;11.886;2022-11-20T06:13:19;18.70;;;12.70;;
27424;SDS011;15244;49.088;11.886;2022-11-20T06:18:21;21.75;;;14.80;;
27424;SDS011;15244;49.088;11.886;2022-11-20T06:23:23;18.23;;;12.25;;
27424;SDS011;15244;49.088;11.886;2022-11-20T06:28:25;16.20;;;12.07;;
27424;SDS011;15244;49.088;11.886;2022-11-20T06:33:28;18.40;;;12.77;;
27424;SDS011;15244;49.088;11.886;2022-11-20T06:38:31;16.75;;;12.65;;
27424;SDS011;15244;49.088;11.886;2022-11-20T06:43:33;13.25;;;10.35;;
27424;SDS011;15244;49.088;11.886;2022-11-20T06:48:35;16.48;;;11.88;;
27424;SDS011;15244;49.088;11.886;2022-11-20T06:53:37;15.35;;;12.27;;
27424;SDS011;15244;49.088;11.886;2022-11-20T06:58:39;16.70;;;12.95;;
27424;SDS011;15244;49.088;11.886;2022-11-20T07:03:41;10.60;;;8.70;;
27424;SDS011;15244;49.088;11.886;2022-11-20T07:08:43;10.88;;;9.07;;
27424;SDS011;15244;49.088;11.886;2022-11-20T07:13:45;12.57;;;8.90;;
27424;SDS011;15244;49.088;11.886;2022-11-20T07:18:47;12.52;;;9.35;;
27424;SDS011;15244;49.088;11.886;2022-11-20T07:23:51;11.75;;;9.77;;
27424;SDS011;15244;49.088;11.886;2022-11-20T07:28:54;12.13;;;9.48;;
27424;SDS011;15244;49.088;11.886;2022-11-20T07:33:55;9.25;;;8.05;;
27424;SDS011;15244;49.088;11.886;2022-11-20T07:38:57;9.45;;;8.43;;
27424;SDS011;15244;49.088;11.886;2022-11-20T07:43:59;12.40;;;11.10;;
27424;SDS011;15244;49.088;11.886;2022-11-20T07:49:01;13.43;;;12.07;;
27424;SDS011;15244;49.088;11.886;2022-11-20T07:54:02;11.27;;;8.70;;
27424;SDS011;15244;49.088;11.886;2022-11-20T07:59:04;7.80;;;7.00;;
27424;SDS011;15244;49.088;11.886;2022-11-20T08:04:08;9.90;;;8.90;;
27424;SDS011;15244;49.088;11.886;2022-11-20T08:09:10;15.48;;;8.70;;
27424;SDS011;15244;49.088;11.886;2022-11-20T08:14:12;8.73;;;7.63;;
27424;SDS011;15244;49.088;11.886;2022-11-20T08:19:15;9.57;;;8.68;;
27424;SDS011;15244;49.088;11.886;2022-11-20T08:24:18;7.72;;;7.03;;
27424;SDS011;15244;49.088;11.886;2022-11-20T08:29:20;20.88;;;17.42;;
27424;SDS011;15244;49.088;11.886;2022-11-20T08:34:22;19.17;;;17.27;;
27424;SDS011;15244;49.088;11.886;2022-11-20T08:39:24;7.85;;;6.45;;
27424;SDS011;15244;49.088;11.886;2022-11-20T08:44:27;9.45;;;6.85;;
27424;SDS011;15244;49.088;11.886;2022-11-20T08:49:28;10.88;;;9.77;;
27424;SDS011;15244;49.088;11.886;2022-11-20T08:54:30;9.65;;;8.63;;
27424;SDS011;15244;49.088;11.886;2022-11-20T08:59:32;8.15;;;6.55;;
27424;SDS011;15244;49.088;11.886;2022-11-20T09:04:53;7.07;;;6.38;;
27424;SDS011;15244;49.088;11.886;2022-11-20T09:09:55;12.35;;;11.25;;
27424;SDS011;15244;49.088;11.886;2022-11-20T09:15:17;10.00;;;9.20;;
27424;SDS011;15244;49.088;11.886;2022-11-20T09:20:19;8.38;;;6.90;;
27424;SDS011;15244;49.088;11.886;2022-11-20T09:25:21;7.75;;;6.47;;
27424;SDS011;15244;49.088;11.886;2022-11-20T09:30:23;5.60;;;5.03;;
27424;SDS011;15244;49.088;11.886;2022-11-20T09:35:26;7.90;;;5.88;;
27424;SDS011;15244;49.088;11.886;2022-11-20T09:40:28;8.18;;;6.03;;
27424;SDS011;15244;49.088;11.886;2022-11-20T09:50:58;6.88;;;6.18;;
27424;SDS011;15244;49.088;11.886;2022-11-20T09:56:13;5.80;;;5.40;;
27424;SDS011;15244;49.088;11.886;2022-11-20T10:01:26;5.78;;;5.18;;
27424;SDS011;15244;49.088;11.886;2022-11-20T10:06:56;5.10;;;4.70;;
27424;SDS011;15244;49.088;11.886;2022-11-20T10:17:49;5.55;;;4.80;;
27424;SDS011;15244;49.088;11.886;2022-11-20T10:23:34;5.70;;;5.20;;
27424;SDS011;15244;49.088;11.886;2022-11-20T10:29:02;6.05;;;5.10;;
27424;SDS011;15244;49.088;11.886;2022-11-20T10:39:29;4.78;;;4.45;;
27424;SDS011;15244;49.088;11.886;2022-11-20T10:44:36;5.70;;;5.30;;
27424;SDS011;15244;49.088;11.886;2022-11-20T10:50:09;6.50;;;5.90;;
27424;SDS011;15244;49.088;11.886;2022-11-20T10:55:30;5.93;;;5.32;;
27424;SDS011;15244;49.088;11.886;2022-11-20T11:00:40;5.45;;;5.05;;
27424;SDS011;15244;49.088;11.886;2022-11-20T11:05:43;5.00;;;4.60;;
27424;SDS011;15244;49.088;11.886;2022-11-20T11:11:24;5.63;;;5.10;;
27424;SDS011;15244;49.088;11.886;2022-11-20T11:16:31;4.63;;;4.32;;
27424;SDS011;15244;49.088;11.886;2022-11-20T11:21:33;5.00;;;4.50;;
27424;SDS011;15244;49.088;11.886;2022-11-20T11:26:36;6.90;;;5.28;;
27424;SDS011;15244;49.088;11.886;2022-11-20T11:31:38;4.82;;;4.43;;
27424;SDS011;15244;49.088;11.886;2022-11-20T11:36:40;8.02;;;5.85;;
27424;SDS011;15244;49.088;11.886;2022-11-20T11:41:43;5.30;;;4.85;;
27424;SDS011;15244;49.088;11.886;2022-11-20T11:46:54;4.55;;;4.20;;
27424;SDS011;15244;49.088;11.886;2022-11-20T11:57:15;4.28;;;3.97;;
27424;SDS011;15244;49.088;11.886;2022-11-20T12:13:26;4.03;;;3.70;;
27424;SDS011;15244;49.088;11.886;2022-11-20T12:18:38;3.50;;;3.20;;
27424;SDS011;15244;49.088;11.886;2022-11-20T12:23:53;3.08;;;2.83;;
27424;SDS011;15244;49.088;11.886;2022-11-20T12:39:48;2.38;;;2.28;;
27424;SDS011;15244;49.088;11.886;2022-11-20T12:45:38;2.60;;;2.50;;
27424;SDS011;15244;49.088;11.886;2022-11-20T13:02:19;2.88;;;2.67;;
27424;SDS011;15244;49.088;11.886;2022-11-20T13:07:27;3.33;;;3.00;;
27424;SDS011;15244;49.088;11.886;2022-11-20T13:12:34;2.95;;;2.75;;
27424;SDS011;15244;49.088;11.886;2022-11-20T13:17:50;2.42;;;2.33;;
27424;SDS011;15244;49.088;11.886;2022-11-20T13:22:55;2.33;;;2.22;;
27424;SDS011;15244;49.088;11.886;2022-11-20T13:28:59;2.78;;;2.58;;
27424;SDS011;15244;49.088;11.886;2022-11-20T13:33:29;2.55;;;2.35;;
27424;SDS011;15244;49.088;11.886;2022-11-20T13:38:46;2.28;;;2.08;;
27424;SDS011;15244;49.088;11.886;2022-11-20T13:43:49;1.98;;;1.88;;
27424;SDS011;15244;49.088;11.886;2022-11-20T13:48:51;1.95;;;1.85;;
27424;SDS011;15244;49.088;11.886;2022-11-20T13:54:04;1.90;;;1.80;;
27424;SDS011;15244;49.088;11.886;2022-11-20T13:59:46;1.20;;;1.10;;
27424;SDS011;15244;49.088;11.886;2022-11-20T14:05:20;1.00;;;1.00;;
27424;SDS011;15244;49.088;11.886;2022-11-20T14:10:28;1.60;;;1.50;;
27424;SDS011;15244;49.088;11.886;2022-11-20T14:15:33;1.17;;;1.17;;
27424;SDS011;15244;49.088;11.886;2022-11-20T14:20:39;1.25;;;1.00;;
27424;SDS011;15244;49.088;11.886;2022-11-20T14:25:43;1.00;;;1.00;;
27424;SDS011;15244;49.088;11.886;2022-11-20T14:30:47;1.35;;;1.25;;
27424;SDS011;15244;49.088;11.886;2022-11-20T14:35:51;1.27;;;1.20;;
27424;SDS011;15244;49.088;11.886;2022-11-20T14:41:05;1.95;;;1.85;;
27424;SDS011;15244;49.088;11.886;2022-11-20T14:46:08;1.90;;;1.80;;
27424;SDS011;15244;49.088;11.886;2022-11-20T14:51:12;1.75;;;1.65;;
27424;SDS011;15244;49.088;11.886;2022-11-20T14:56:27;2.00;;;1.90;;
27424;SDS011;15244;49.088;11.886;2022-11-20T15:01:29;2.95;;;2.03;;
27424;SDS011;15244;49.088;11.886;2022-11-20T15:06:32;2.83;;;2.63;;
27424;SDS011;15244;49.088;11.886;2022-11-20T15:11:34;2.97;;;2.78;;
27424;SDS011;15244;49.088;11.886;2022-11-20T15:16:37;2.80;;;2.60;;
27424;SDS011;15244;49.088;11.886;2022-11-20T15:21:40;2.67;;;2.47;;
27424;SDS011;15244;49.088;11.886;2022-11-20T15:26:42;1.70;;;1.60;;
27424;SDS011;15244;49.088;11.886;2022-11-20T15:31:44;1.38;;;1.27;;
27424;SDS011;15244;49.088;11.886;2022-11-20T15:36:46;1.08;;;1.08;;
27424;SDS011;15244;49.088;11.886;2022-11-20T15:41:48;1.45;;;1.40;;
27424;SDS011;15244;49.088;11.886;2022-11-20T15:46:49;1.30;;;1.20;;
27424;SDS011;15244;49.088;11.886;2022-11-20T15:51:51;1.42;;;1.30;;
27424;SDS011;15244;49.088;11.886;2022-11-20T15:56:54;1.30;;;1.20;;
27424;SDS011;15244;49.088;11.886;2022-11-20T16:01:56;1.17;;;1.17;;
27424;SDS011;15244;49.088;11.886;2022-11-20T16:06:58;1.10;;;1.10;;
27424;SDS011;15244;49.088;11.886;2022-11-20T16:12:00;1.45;;;1.35;;
27424;SDS011;15244;49.088;11.886;2022-11-20T16:17:02;1.50;;;1.40;;
27424;SDS011;15244;49.088;11.886;2022-11-20T16:22:04;1.50;;;1.40;;
27424;SDS011;15244;49.088;11.886;2022-11-20T16:27:05;1.77;;;1.67;;
27424;SDS011;15244;49.088;11.886;2022-11-20T16:32:07;2.00;;;1.90;;
27424;SDS011;15244;49.088;11.886;2022-11-20T16:37:11;1.50;;;1.40;;
27424;SDS011;15244;49.088;11.886;2022-11-20T16:42:13;1.52;;;1.42;;
27424;SDS011;15244;49.088;11.886;2022-11-20T16:47:14;1.55;;;1.45;;
27424;SDS011;15244;49.088;11.886;2022-11-20T16:52:16;1.77;;;1.67;;
27424;SDS011;15244;49.088;11.886;2022-11-20T16:57:18;1.30;;;1.30;;
27424;SDS011;15244;49.088;11.886;2022-11-20T17:02:20;1.67;;;1.58;;
27424;SDS011;15244;49.088;11.886;2022-11-20T17:07:21;1.60;;;1.50;;
27424;SDS011;15244;49.088;11.886;2022-11-20T17:12:23;1.80;;;1.70;;
27424;SDS011;15244;49.088;11.886;2022-11-20T17:17:26;2.25;;;2.15;;
27424;SDS011;15244;49.088;11.886;2022-11-20T17:22:28;1.52;;;1.42;;
27424;SDS011;15244;49.088;11.886;2022-11-20T17:27:30;1.70;;;1.60;;
27424;SDS011;15244;49.088;11.886;2022-11-20T17:32:31;2.10;;;1.92;;
27424;SDS011;15244;49.088;11.886;2022-11-20T17:37:33;1.90;;;1.80;;
27424;SDS011;15244;49.088;11.886;2022-11-20T17:42:35;4.03;;;2.10;;
27424;SDS011;15244;49.088;11.886;2022-11-20T17:47:37;2.38;;;2.28;;
27424;SDS011;15244;49.088;11.886;2022-11-20T17:52:39;4.28;;;2.60;;
27424;SDS011;15244;49.088;11.886;2022-11-20T17:57:40;4.65;;;2.40;;
27424;SDS011;15244;49.088;11.886;2022-11-20T18:02:57;2.22;;;2.13;;
27424;SDS011;15244;49.088;11.886;2022-11-20T18:07:59;3.65;;;2.35;;
27424;SDS011;15244;49.088;11.886;2022-11-20T18:13:01;4.72;;;4.22;;
27424;SDS011;15244;49.088;11.886;2022-11-20T18:18:03;12.65;;;6.78;;
27424;SDS011;15244;49.088;11.886;2022-11-20T18:23:04;5.85;;;4.15;;
27424;SDS011;15244;49.088;11.886;2022-11-20T18:28:06;3.45;;;3.15;;
27424;SDS011;15244;49.088;11.886;2022-11-20T18:33:09;6.57;;;5.97;;
27424;SDS011;15244;49.088;11.886;2022-11-20T18:38:11;8.18;;;7.13;;
27424;SDS011;15244;49.088;11.886;2022-11-20T18:43:13;8.32;;;6.93;;
27424;SDS011;15244;49.088;11.886;2022-11-20T18:48:33;7.97;;;6.93;;
27424;SDS011;15244;49.088;11.886;2022-11-20T18:53:35;8.25;;;7.55;;
27424;SDS011;15244;49.088;11.886;2022-11-20T18:58:38;6.55;;;6.05;;
27424;SDS011;15244;49.088;11.886;2022-11-20T19:03:41;6.68;;;6.10;;
27424;SDS011;15244;49.088;11.886;2022-11-20T19:08:45;7.28;;;6.50;;
27424;SDS011;15244;49.088;11.886;2022-11-20T19:13:47;6.75;;;6.13;;
27424;SDS011;15244;49.088;11.886;2022-11-20T19:18:50;9.88;;;8.57;;
27424;SDS011;15244;49.088;11.886;2022-11-20T19:23:55;8.90;;;7.40;;
27424;SDS011;15244;49.088;11.886;2022-11-20T19:29:03;7.70;;;6.97;;
27424;SDS011;15244;49.088;11.886;2022-11-20T19:34:06;12.82;;;9.25;;
27424;SDS011;15244;49.088;11.886;2022-11-20T19:39:10;11.02;;;8.98;;
27424;SDS011;15244;49.088;11.886;2022-11-20T19:44:13;11.10;;;8.85;;
27424;SDS011;15244;49.088;11.886;2022-11-20T19:49:18;6.97;;;6.20;;
27424;SDS011;15244;49.088;11.886;2022-11-20T19:54:24;114.82;;;53.22;;
27424;SDS011;15244;49.088;11.886;2022-11-20T19:59:29;180.55;;;83.25;;
27424;SDS011;15244;49.088;11.886;2022-11-20T20:04:32;120.82;;;66.10;;
27424;SDS011;15244;49.088;11.886;2022-11-20T20:09:37;48.17;;;28.50;;
27424;SDS011;15244;49.088;11.886;2022-11-20T20:14:42;18.92;;;14.57;;
27424;SDS011;15244;49.088;11.886;2022-11-20T20:19:43;20.63;;;13.80;;
27424;SDS011;15244;49.088;11.886;2022-11-20T20:24:49;17.00;;;10.45;;
27424;SDS011;15244;49.088;11.886;2022-11-20T20:29:52;11.43;;;9.20;;
27424;SDS011;15244;49.088;11.886;2022-11-20T20:34:56;18.77;;;13.05;;
27424;SDS011;15244;49.088;11.886;2022-11-20T20:39:58;15.20;;;12.25;;
27424;SDS011;15244;49.088;11.886;2022-11-20T20:45:03;8.07;;;7.38;;
27424;SDS011;15244;49.088;11.886;2022-11-20T20:50:09;25.65;;;21.38;;
27424;SDS011;15244;49.088;11.886;2022-11-20T20:55:12;21.17;;;18.38;;
27424;SDS011;15244;49.088;11.886;2022-11-20T21:00:15;20.08;;;18.25;;
27424;SDS011;15244;49.088;11.886;2022-11-20T21:05:17;21.92;;;19.85;;
27424;SDS011;15244;49.088;11.886;2022-11-20T21:10:21;12.13;;;11.13;;
27424;SDS011;15244;49.088;11.886;2022-11-20T21:15:24;6.80;;;6.30;;
27424;SDS011;15244;49.088;11.886;2022-11-20T21:20:29;4.93;;;4.32;;
27424;SDS011;15244;49.088;11.886;2022-11-20T21:25:52;4.93;;;4.53;;
27424;SDS011;15244;49.088;11.886;2022-11-20T21:31:08;5.40;;;4.88;;
27424;SDS011;15244;49.088;11.886;2022-11-20T21:36:25;5.10;;;4.63;;
27424;SDS011;15244;49.088;11.886;2022-11-20T21:41:31;4.57;;;4.10;;
27424;SDS011;15244;49.088;11.886;2022-11-20T21:46:37;3.85;;;3.50;;
27424;SDS011;15244;49.088;11.886;2022-11-20T21:51:41;3.30;;;2.72;;
27424;SDS011;15244;49.088;11.886;2022-11-20T21:56:42;3.33;;;2.78;;
27424;SDS011;15244;49.088;11.886;2022-11-20T22:01:46;2.80;;;2.60;;
27424;SDS011;15244;49.088;11.886;2022-11-20T22:06:49;2.40;;;2.25;;
27424;SDS011;15244;49.088;11.886;2022-11-20T22:11:56;3.10;;;2.90;;
27424;SDS011;15244;49.088;11.886;2022-11-20T22:16:58;2.92;;;2.72;;
27424;SDS011;15244;49.088;11.886;2022-11-20T22:22:03;2.00;;;1.90;;
27424;SDS011;15244;49.088;11.886;2022-11-20T22:27:04;5.35;;;3.42;;
27424;SDS011;15244;49.088;11.886;2022-11-20T22:32:07;2.88;;;1.80;;
27424;SDS011;15244;49.088;11.886;2022-11-20T22:37:10;2.25;;;1.55;;
27424;SDS011;15244;49.088;11.886;2022-11-20T22:42:13;1.67;;;1.58;;
27424;SDS011;15244;49.088;11.886;2022-11-20T22:47:15;1.58;;;1.48;;
27424;SDS011;15244;49.088;11.886;2022-11-20T22:52:19;3.88;;;1.70;;
27424;SDS011;15244;49.088;11.886;2022-11-20T22:57:25;1.52;;;1.45;;
27424;SDS011;15244;49.088;11.886;2022-11-20T23:02:27;1.70;;;1.50;;
27424;SDS011;15244;49.088;11.886;2022-11-20T23:07:34;1.98;;;1.88;;
27424;SDS011;15244;49.088;11.886;2022-11-20T23:12:42;2.38;;;2.28;;
27424;SDS011;15244;49.088;11.886;2022-11-20T23:17:45;1.88;;;1.77;;
27424;SDS011;15244;49.088;11.886;2022-11-20T23:22:48;1.70;;;1.60;;
27424;SDS011;15244;49.088;11.886;2022-11-20T23:27:51;1.60;;;1.50;;
27424;SDS011;15244;49.088;11.886;2022-11-20T23:32:54;1.70;;;1.50;;
27424;SDS011;15244;49.088;11.886;2022-11-20T23:37:56;2.00;;;1.90;;
27424;SDS011;15244;49.088;11.886;2022-11-20T23:42:59;1.88;;;1.77;;
27424;SDS011;15244;49.088;11.886;2022-11-20T23:48:18;1.90;;;1.80;;
27424;SDS011;15244;49.088;11.886;2022-11-20T23:53:22;1.88;;;1.77;;
27424;SDS011;15244;49.088;11.886;2022-11-20T23:58:29;2.10;;;1.85;;
